LOT6TA EPWA-LJLJ
Flight info
| Callsign | LOT6TA |
|---|---|
| Flight time | N/A |
| Altitude | 38000 |
| Route | EVINA Z175 SKARY DCT MOMEP DCT SUNIS DCT RADLY DCT OFROZ OFROZ1R |
| Aircraft | B38M/M-SDE1FGHILORVWXY/HB1 |
Departure
| Time | N/A |
|---|---|
| Airport | Warsaw Chopin Airport (EPWA) |
Arrival
| Time | 2026-04-30 18:20 |
|---|---|
| Airport | Ljubljana Jože Pučnik Airport (LJLJ) |
| Time | Latitude | Longitude | Altitude | Speed | Heading |
|---|---|---|---|---|---|
| 2026-04-30 17:39 | 49.18483 | 18.83756 | 38372 ft | 488 kts | 201° |
| 2026-04-30 17:42 | 48.86516 | 18.66577 | 38363 ft | 487 kts | 200° |
| 2026-04-30 17:43 | 48.70496 | 18.57924 | 38337 ft | 486 kts | 208° |
| 2026-04-30 17:44 | 48.62854 | 18.48257 | 38331 ft | 479 kts | 227° |
| 2026-04-30 17:44 | 48.55710 | 18.37675 | 38335 ft | 479 kts | 227° |
| 2026-04-30 17:47 | 48.34319 | 18.05980 | 38330 ft | 479 kts | 227° |
| 2026-04-30 17:48 | 48.17632 | 17.81523 | 38333 ft | 479 kts | 226° |
| 2026-04-30 17:50 | 47.98551 | 17.53845 | 38342 ft | 478 kts | 226° |
| 2026-04-30 17:52 | 47.84175 | 17.33190 | 38343 ft | 479 kts | 226° |
| 2026-04-30 17:54 | 47.62365 | 17.02170 | 38356 ft | 485 kts | 225° |
| 2026-04-30 17:56 | 47.42861 | 16.74747 | 36857 ft | 480 kts | 225° |
| 2026-04-30 17:57 | 47.35534 | 16.64522 | 34643 ft | 487 kts | 225° |
| 2026-04-30 17:58 | 47.28107 | 16.54197 | 32378 ft | 487 kts | 224° |
| 2026-04-30 17:59 | 47.18435 | 16.40807 | 30360 ft | 467 kts | 224° |
| 2026-04-30 18:00 | 47.10559 | 16.26396 | 28153 ft | 446 kts | 240° |
| 2026-04-30 18:00 | 47.05668 | 16.14994 | 26642 ft | 435 kts | 240° |
| 2026-04-30 18:01 | 47.02476 | 16.07550 | 25666 ft | 429 kts | 240° |
| 2026-04-30 18:02 | 46.97756 | 15.96581 | 24312 ft | 420 kts | 240° |
| 2026-04-30 18:02 | 46.93120 | 15.85850 | 22885 ft | 411 kts | 240° |
| 2026-04-30 18:03 | 46.88570 | 15.75357 | 21489 ft | 403 kts | 240° |
| 2026-04-30 18:04 | 46.84098 | 15.65082 | 20164 ft | 396 kts | 240° |
| 2026-04-30 18:05 | 46.78251 | 15.51706 | 18551 ft | 386 kts | 239° |
| 2026-04-30 18:06 | 46.72539 | 15.38699 | 16841 ft | 375 kts | 239° |
| 2026-04-30 18:07 | 46.66969 | 15.26074 | 15235 ft | 366 kts | 239° |
| 2026-04-30 18:08 | 46.61407 | 15.18978 | 13998 ft | 363 kts | 203° |
| 2026-04-30 18:09 | 46.52244 | 15.13328 | 12417 ft | 353 kts | 202° |
| 2026-04-30 18:10 | 46.43295 | 15.07891 | 10866 ft | 344 kts | 202° |
| 2026-04-30 18:11 | 46.34657 | 15.02659 | 9758 ft | 321 kts | 202° |
| 2026-04-30 18:11 | 46.28970 | 14.98380 | 9111 ft | 303 kts | 216° |
| 2026-04-30 18:12 | 46.23873 | 14.93154 | 8184 ft | 298 kts | 215° |
| 2026-04-30 18:13 | 46.20499 | 14.89741 | 7569 ft | 295 kts | 215° |
| 2026-04-30 18:13 | 46.16075 | 14.85276 | 6775 ft | 291 kts | 214° |
| 2026-04-30 18:14 | 46.12241 | 14.81417 | 6293 ft | 280 kts | 214° |
| 2026-04-30 18:15 | 46.08525 | 14.75916 | 5985 ft | 246 kts | 261° |
| 2026-04-30 18:15 | 46.10214 | 14.69456 | 5059 ft | 230 kts | 311° |
| 2026-04-30 18:16 | 46.12076 | 14.65843 | 4405 ft | 220 kts | 310° |
| 2026-04-30 18:16 | 46.13862 | 14.62365 | 3800 ft | 211 kts | 310° |
| 2026-04-30 18:17 | 46.14724 | 14.60681 | 3505 ft | 206 kts | 309° |
| 2026-04-30 18:17 | 46.15531 | 14.59107 | 3251 ft | 185 kts | 309° |
| 2026-04-30 18:17 | 46.16986 | 14.56273 | 2759 ft | 174 kts | 308° |
| 2026-04-30 18:18 | 46.17689 | 14.54897 | 2536 ft | 167 kts | 308° |
| 2026-04-30 18:18 | 46.18357 | 14.53593 | 2269 ft | 162 kts | 307° |
| 2026-04-30 18:18 | 46.18807 | 14.52714 | 2125 ft | 161 kts | 308° |
| 2026-04-30 18:18 | 46.19471 | 14.51413 | 1901 ft | 160 kts | 308° |
| 2026-04-30 18:19 | 46.20128 | 14.50115 | 1703 ft | 162 kts | 308° |
| 2026-04-30 18:19 | 46.20799 | 14.48820 | 1478 ft | 159 kts | 308° |
| 2026-04-30 18:19 | 46.21459 | 14.47549 | 1278 ft | 157 kts | 306° |
| 2026-04-30 18:19 | 46.22057 | 14.46370 | 1238 ft | 124 kts | 306° |
| 2026-04-30 18:20 | 46.22483 | 14.45540 | 1259 ft | 81 kts | 306° |
| 2026-04-30 18:20 | 46.22729 | 14.45058 | 1263 ft | 47 kts | 306° |
| 2026-04-30 18:20 | 46.22921 | 14.44679 | 1274 ft | 47 kts | 307° |
| 2026-04-30 18:20 | 46.23110 | 14.44312 | 1279 ft | 36 kts | 307° |
| 2026-04-30 18:21 | 46.23214 | 14.44132 | 1284 ft | 21 kts | 321° |
| 2026-04-30 18:21 | 46.23345 | 14.44084 | 1288 ft | 16 kts | 13° |
| 2026-04-30 18:21 | 46.23392 | 14.44215 | 1287 ft | 18 kts | 112° |
| 2026-04-30 18:21 | 46.23311 | 14.44381 | 1283 ft | 23 kts | 127° |
| 2026-04-30 18:22 | 46.23207 | 14.44585 | 1274 ft | 27 kts | 126° |
| 2026-04-30 18:22 | 46.22988 | 14.45012 | 1272 ft | 28 kts | 126° |
| 2026-04-30 18:22 | 46.22883 | 14.45216 | 1265 ft | 19 kts | 126° |
| 2026-04-30 18:23 | 46.22853 | 14.45318 | 1265 ft | 9 kts | 66° |
| 2026-04-30 18:23 | 46.22899 | 14.45373 | 1267 ft | 9 kts | 37° |
| 2026-04-30 18:23 | 46.22955 | 14.45397 | 1263 ft | 9 kts | 329° |
| 2026-04-30 18:23 | 46.22988 | 14.45340 | 1268 ft | 5 kts | 306° |
| 2026-04-30 18:24 | 46.23037 | 14.45356 | 1263 ft | 4 kts | 37° |
| 2026-04-30 18:24 | 46.23049 | 14.45370 | 1263 ft | 1 kts | 37° |
| 2026-04-30 18:24 | 46.23051 | 14.45372 | 1262 ft | 0 kts | 37° |